Tropical Cyclones
[Index]
Main Index Home Page Stock Weather Photos Extreme Storms Discussion Storm News and Storm Chasing Reports Tropical Cyclones / Hurricanes / Typhoons Weather Data and Links Wild Fires / Bushfires Weather Observation Techniques Weather Picture Catalogue Tornado Pictures and Reports Stock Video Footage and DVDs for sale
Season 1985-1986 Tropical Cyclone VICTOR Track Map
Season 1985-1986 Summaries: [BoM-AU] [JTWC-AU] [JTWC-SIO] [JTWC-SPAC] [JTWC-SH]
<<- Previous TC | BoM 1985-1986 Season | Next TC ->>

click for intensity scale information  Lat/long Grid: Show Hide

 Date Labels: Show Hide

Bureau of Meteorology Tropical Cyclone Data

Name: VICTOR
Number: 690 / 198586_11

02 Mar 1986 09:00 UTC to 09 Mar 1986 06:00 UTC

    date/time    lat    long    hPa   cat  kts
1986-03-02 09   13.2   124.2    999         33          
1986-03-02 12   13.3   124.4    998         33          
1986-03-02 16   13.4   124.2    998         33          
1986-03-02 18   13.5   123.9    996         37          
1986-03-02 21   13.6   123.6    994    1    41          
1986-03-03 00   13.7   123.4    994    1    41          
1986-03-03 03   13.9   123.2    992    1    43          
1986-03-03 06   14.1   122.8    990    1    47          
1986-03-03 09   14.3   122.5    990    1    47          
1986-03-03 12   14.4   122.2    986    1    52          
1986-03-03 16   14.5   121.6    986    1    52          
1986-03-03 18   14.6   121.3    984    2    54          
1986-03-03 21   14.7   120.7    980    2    60          
1986-03-04 00   14.8   120.3    976    2    66          
1986-03-04 06   15.4   119.4    965    3    80          
1986-03-04 12   16.2   118.3    955    4    89          
1986-03-04 18   16.5   117.5    950    4    95          
1986-03-05 00   17.1   116.8    940    4    105          
1986-03-05 06   17.5   116.3    930    4    113          
1986-03-05 12   18.2   115.5    935    4    109          
1986-03-05 18   18.4   114.9    945    4    99          
1986-03-05 21   18.5   114.6    945    4    99          
1986-03-06 00   18.6   114.5    945    4    99          
1986-03-06 03   18.8   114.4    945    4    99          
1986-03-06 06   19.0   114.3    945    4    99          
1986-03-06 09   19.2   114.1    950    4    95          
1986-03-06 12   19.4   114.0    950    4    95          
1986-03-06 16   19.6   113.7    950    4    95          
1986-03-06 18   19.8   113.5    955    4    89          
1986-03-06 21   20.2   113.0    955    4    89          
1986-03-07 00   20.4   112.6    955    4    89          
1986-03-07 03   20.6   112.4    960    3    84          
1986-03-07 06   21.0   112.1    960    3    84          
1986-03-07 09   21.5   111.7    965    3    80          
1986-03-07 12   22.0   111.4    965    3    80          
1986-03-07 16   22.6   111.2    970    3    74          
1986-03-07 18   22.9   111.0    974    2    68          
1986-03-07 21   23.3   110.8    978    2    64          
1986-03-08 00   23.6   110.6    982    2    58          
1986-03-08 06   24.7   110.0    986    1    52          
1986-03-08 12   25.6   109.4    990    1    47          
1986-03-08 18   26.5   109.3    994    1    41          
1986-03-09 00   27.6   109.7    998         33          
1986-03-09 06   28.7   109.8   1002         25          
Winds are 10-min average.

Tropical cyclone tracks developed by Michael Bath using data from the Bureau of Meteorology and Google Maps.


[Australian Severe Weather index] [Copyright Notice] [Email Contacts] [Search This Site] [Privacy Policy]
Document: tropical_cyclone_victor.htm Updated: 30 May 2013